sensor_id;sensor_type;location;lat;lon;timestamp;P1;durP1;ratioP1;P2;durP2;ratioP2
70818;SDS011;58439;51.046;13.692;2023-05-07T00:00:08;37.67;;;19.48;;
70818;SDS011;58439;51.046;13.692;2023-05-07T00:02:36;32.08;;;18.50;;
70818;SDS011;58439;51.046;13.692;2023-05-07T00:05:04;31.08;;;15.95;;
70818;SDS011;58439;51.046;13.692;2023-05-07T00:07:33;28.60;;;16.60;;
70818;SDS011;58439;51.046;13.692;2023-05-07T00:10:01;30.35;;;16.95;;
70818;SDS011;58439;51.046;13.692;2023-05-07T00:12:29;29.80;;;15.07;;
70818;SDS011;58439;51.046;13.692;2023-05-07T00:14:58;31.70;;;16.17;;
70818;SDS011;58439;51.046;13.692;2023-05-07T00:17:26;30.85;;;17.25;;
70818;SDS011;58439;51.046;13.692;2023-05-07T00:19:53;28.75;;;16.30;;
70818;SDS011;58439;51.046;13.692;2023-05-07T00:22:20;32.92;;;17.30;;
70818;SDS011;58439;51.046;13.692;2023-05-07T00:24:47;29.60;;;16.92;;
70818;SDS011;58439;51.046;13.692;2023-05-07T00:27:14;30.38;;;16.40;;
70818;SDS011;58439;51.046;13.692;2023-05-07T00:29:42;31.27;;;17.05;;
70818;SDS011;58439;51.046;13.692;2023-05-07T00:32:09;28.70;;;16.27;;
70818;SDS011;58439;51.046;13.692;2023-05-07T00:34:37;31.98;;;18.88;;
70818;SDS011;58439;51.046;13.692;2023-05-07T00:37:05;32.00;;;18.30;;
70818;SDS011;58439;51.046;13.692;2023-05-07T00:39:35;32.33;;;17.70;;
70818;SDS011;58439;51.046;13.692;2023-05-07T00:42:02;32.05;;;19.65;;
70818;SDS011;58439;51.046;13.692;2023-05-07T00:44:30;37.92;;;19.92;;
70818;SDS011;58439;51.046;13.692;2023-05-07T00:46:57;37.67;;;20.63;;
70818;SDS011;58439;51.046;13.692;2023-05-07T00:49:26;36.13;;;21.63;;
70818;SDS011;58439;51.046;13.692;2023-05-07T00:52:11;37.80;;;21.30;;
70818;SDS011;58439;51.046;13.692;2023-05-07T00:54:54;39.88;;;21.60;;
70818;SDS011;58439;51.046;13.692;2023-05-07T00:57:22;40.92;;;22.38;;
70818;SDS011;58439;51.046;13.692;2023-05-07T00:59:52;42.13;;;22.27;;
70818;SDS011;58439;51.046;13.692;2023-05-07T01:02:20;36.45;;;20.45;;
70818;SDS011;58439;51.046;13.692;2023-05-07T01:04:47;37.78;;;21.40;;
70818;SDS011;58439;51.046;13.692;2023-05-07T01:07:15;37.60;;;20.83;;
70818;SDS011;58439;51.046;13.692;2023-05-07T01:09:42;33.78;;;20.63;;
70818;SDS011;58439;51.046;13.692;2023-05-07T01:12:09;31.88;;;18.88;;
70818;SDS011;58439;51.046;13.692;2023-05-07T01:14:37;30.85;;;18.63;;
70818;SDS011;58439;51.046;13.692;2023-05-07T01:17:05;31.67;;;18.65;;
70818;SDS011;58439;51.046;13.692;2023-05-07T01:19:33;32.08;;;18.55;;
70818;SDS011;58439;51.046;13.692;2023-05-07T01:22:02;30.65;;;18.40;;
70818;SDS011;58439;51.046;13.692;2023-05-07T01:24:43;32.30;;;19.25;;
70818;SDS011;58439;51.046;13.692;2023-05-07T01:27:12;27.63;;;17.35;;
70818;SDS011;58439;51.046;13.692;2023-05-07T01:29:40;28.48;;;17.00;;
70818;SDS011;58439;51.046;13.692;2023-05-07T01:32:08;29.42;;;17.45;;
70818;SDS011;58439;51.046;13.692;2023-05-07T01:34:36;27.65;;;16.73;;
70818;SDS011;58439;51.046;13.692;2023-05-07T01:37:04;31.08;;;16.88;;
70818;SDS011;58439;51.046;13.692;2023-05-07T01:39:31;30.33;;;17.50;;
70818;SDS011;58439;51.046;13.692;2023-05-07T01:42:00;29.45;;;17.85;;
70818;SDS011;58439;51.046;13.692;2023-05-07T01:44:28;29.60;;;17.40;;
70818;SDS011;58439;51.046;13.692;2023-05-07T01:46:55;27.27;;;17.50;;
70818;SDS011;58439;51.046;13.692;2023-05-07T01:49:24;27.15;;;15.80;;
70818;SDS011;58439;51.046;13.692;2023-05-07T01:51:52;28.15;;;17.10;;
70818;SDS011;58439;51.046;13.692;2023-05-07T01:54:19;35.65;;;18.30;;
70818;SDS011;58439;51.046;13.692;2023-05-07T01:56:57;26.45;;;16.85;;
70818;SDS011;58439;51.046;13.692;2023-05-07T01:59:24;27.80;;;17.77;;
70818;SDS011;58439;51.046;13.692;2023-05-07T02:01:52;28.38;;;17.40;;
70818;SDS011;58439;51.046;13.692;2023-05-07T02:04:19;27.33;;;16.65;;
70818;SDS011;58439;51.046;13.692;2023-05-07T02:06:47;26.73;;;16.15;;
70818;SDS011;58439;51.046;13.692;2023-05-07T02:09:15;29.52;;;17.67;;
70818;SDS011;58439;51.046;13.692;2023-05-07T02:11:46;26.37;;;17.27;;
70818;SDS011;58439;51.046;13.692;2023-05-07T02:14:14;34.40;;;18.00;;
70818;SDS011;58439;51.046;13.692;2023-05-07T02:16:41;26.95;;;17.40;;
70818;SDS011;58439;51.046;13.692;2023-05-07T02:19:13;31.85;;;18.67;;
70818;SDS011;58439;51.046;13.692;2023-05-07T02:21:41;28.85;;;18.25;;
70818;SDS011;58439;51.046;13.692;2023-05-07T02:24:08;27.60;;;17.52;;
70818;SDS011;58439;51.046;13.692;2023-05-07T02:26:35;22.08;;;13.52;;
70818;SDS011;58439;51.046;13.692;2023-05-07T02:29:03;23.52;;;15.48;;
70818;SDS011;58439;51.046;13.692;2023-05-07T02:31:30;28.05;;;17.05;;
70818;SDS011;58439;51.046;13.692;2023-05-07T02:33:58;28.90;;;16.77;;
70818;SDS011;58439;51.046;13.692;2023-05-07T02:36:25;26.30;;;16.42;;
70818;SDS011;58439;51.046;13.692;2023-05-07T02:38:59;30.73;;;18.05;;
70818;SDS011;58439;51.046;13.692;2023-05-07T02:41:27;27.00;;;17.35;;
70818;SDS011;58439;51.046;13.692;2023-05-07T02:43:54;28.13;;;17.70;;
70818;SDS011;58439;51.046;13.692;2023-05-07T02:46:21;28.90;;;16.65;;
70818;SDS011;58439;51.046;13.692;2023-05-07T02:48:56;28.40;;;16.67;;
70818;SDS011;58439;51.046;13.692;2023-05-07T02:51:25;25.77;;;15.35;;
70818;SDS011;58439;51.046;13.692;2023-05-07T02:53:56;29.85;;;16.15;;
70818;SDS011;58439;51.046;13.692;2023-05-07T02:56:25;22.95;;;14.75;;
70818;SDS011;58439;51.046;13.692;2023-05-07T02:58:53;26.73;;;14.98;;
70818;SDS011;58439;51.046;13.692;2023-05-07T03:01:23;24.60;;;15.13;;
70818;SDS011;58439;51.046;13.692;2023-05-07T03:03:59;26.08;;;15.07;;
70818;SDS011;58439;51.046;13.692;2023-05-07T03:06:31;24.13;;;13.90;;
70818;SDS011;58439;51.046;13.692;2023-05-07T03:08:59;23.92;;;14.40;;
70818;SDS011;58439;51.046;13.692;2023-05-07T03:11:26;22.25;;;13.13;;
70818;SDS011;58439;51.046;13.692;2023-05-07T03:13:54;22.45;;;13.48;;
70818;SDS011;58439;51.046;13.692;2023-05-07T03:16:21;22.42;;;13.85;;
70818;SDS011;58439;51.046;13.692;2023-05-07T03:18:49;21.27;;;12.25;;
70818;SDS011;58439;51.046;13.692;2023-05-07T03:21:16;22.48;;;12.27;;
70818;SDS011;58439;51.046;13.692;2023-05-07T03:23:43;17.95;;;11.65;;
70818;SDS011;58439;51.046;13.692;2023-05-07T03:26:10;19.65;;;11.15;;
70818;SDS011;58439;51.046;13.692;2023-05-07T03:28:38;19.02;;;10.82;;
70818;SDS011;58439;51.046;13.692;2023-05-07T03:31:09;18.88;;;11.20;;
70818;SDS011;58439;51.046;13.692;2023-05-07T03:33:37;19.13;;;11.88;;
70818;SDS011;58439;51.046;13.692;2023-05-07T03:36:17;20.20;;;11.70;;
70818;SDS011;58439;51.046;13.692;2023-05-07T03:38:44;19.48;;;10.82;;
70818;SDS011;58439;51.046;13.692;2023-05-07T03:41:12;22.73;;;11.57;;
70818;SDS011;58439;51.046;13.692;2023-05-07T03:43:39;21.60;;;12.70;;
70818;SDS011;58439;51.046;13.692;2023-05-07T03:46:09;20.45;;;12.50;;
70818;SDS011;58439;51.046;13.692;2023-05-07T03:48:37;20.70;;;12.65;;
70818;SDS011;58439;51.046;13.692;2023-05-07T03:51:05;22.83;;;12.27;;
70818;SDS011;58439;51.046;13.692;2023-05-07T03:53:33;19.10;;;12.15;;
70818;SDS011;58439;51.046;13.692;2023-05-07T03:56:00;19.70;;;11.98;;
70818;SDS011;58439;51.046;13.692;2023-05-07T03:58:31;20.77;;;12.45;;
70818;SDS011;58439;51.046;13.692;2023-05-07T04:01:03;21.77;;;12.95;;
70818;SDS011;58439;51.046;13.692;2023-05-07T04:03:30;20.50;;;12.02;;
70818;SDS011;58439;51.046;13.692;2023-05-07T04:05:59;22.13;;;12.32;;
70818;SDS011;58439;51.046;13.692;2023-05-07T04:08:26;23.33;;;12.68;;
70818;SDS011;58439;51.046;13.692;2023-05-07T04:10:57;23.23;;;13.32;;
70818;SDS011;58439;51.046;13.692;2023-05-07T04:13:29;22.92;;;12.65;;
70818;SDS011;58439;51.046;13.692;2023-05-07T04:15:58;24.83;;;12.85;;
70818;SDS011;58439;51.046;13.692;2023-05-07T04:18:28;23.02;;;13.45;;
70818;SDS011;58439;51.046;13.692;2023-05-07T04:20:56;21.08;;;13.30;;
70818;SDS011;58439;51.046;13.692;2023-05-07T04:23:24;24.30;;;12.75;;
70818;SDS011;58439;51.046;13.692;2023-05-07T04:25:51;25.95;;;14.02;;
70818;SDS011;58439;51.046;13.692;2023-05-07T04:28:30;19.75;;;13.13;;
70818;SDS011;58439;51.046;13.692;2023-05-07T04:30:57;23.73;;;13.35;;
70818;SDS011;58439;51.046;13.692;2023-05-07T04:33:25;24.02;;;12.70;;
70818;SDS011;58439;51.046;13.692;2023-05-07T04:42:16;22.23;;;12.52;;
70818;SDS011;58439;51.046;13.692;2023-05-07T04:47:24;22.63;;;13.07;;
70818;SDS011;58439;51.046;13.692;2023-05-07T04:49:54;19.70;;;10.95;;
70818;SDS011;58439;51.046;13.692;2023-05-07T04:52:21;30.20;;;14.43;;
70818;SDS011;58439;51.046;13.692;2023-05-07T04:54:50;25.05;;;13.40;;
70818;SDS011;58439;51.046;13.692;2023-05-07T04:57:17;24.67;;;14.50;;
70818;SDS011;58439;51.046;13.692;2023-05-07T04:59:44;27.75;;;14.68;;
70818;SDS011;58439;51.046;13.692;2023-05-07T05:02:12;28.77;;;14.55;;
70818;SDS011;58439;51.046;13.692;2023-05-07T05:04:39;23.13;;;14.07;;
70818;SDS011;58439;51.046;13.692;2023-05-07T05:07:08;22.17;;;12.48;;
70818;SDS011;58439;51.046;13.692;2023-05-07T05:09:35;22.05;;;12.80;;
70818;SDS011;58439;51.046;13.692;2023-05-07T05:12:02;24.48;;;13.50;;
70818;SDS011;58439;51.046;13.692;2023-05-07T05:14:30;21.85;;;12.73;;
70818;SDS011;58439;51.046;13.692;2023-05-07T05:16:57;22.48;;;12.77;;
70818;SDS011;58439;51.046;13.692;2023-05-07T05:19:25;21.92;;;12.82;;
70818;SDS011;58439;51.046;13.692;2023-05-07T05:21:52;21.70;;;12.32;;
70818;SDS011;58439;51.046;13.692;2023-05-07T05:24:19;19.35;;;11.60;;
70818;SDS011;58439;51.046;13.692;2023-05-07T05:26:47;20.15;;;11.85;;
70818;SDS011;58439;51.046;13.692;2023-05-07T05:29:14;18.35;;;11.15;;
70818;SDS011;58439;51.046;13.692;2023-05-07T05:31:45;19.85;;;11.40;;
70818;SDS011;58439;51.046;13.692;2023-05-07T05:34:29;22.52;;;11.93;;
70818;SDS011;58439;51.046;13.692;2023-05-07T05:37:41;17.85;;;10.00;;
70818;SDS011;58439;51.046;13.692;2023-05-07T05:40:08;17.60;;;10.75;;
70818;SDS011;58439;51.046;13.692;2023-05-07T05:42:36;20.98;;;11.55;;
70818;SDS011;58439;51.046;13.692;2023-05-07T05:45:04;23.20;;;11.85;;
70818;SDS011;58439;51.046;13.692;2023-05-07T05:47:33;20.25;;;11.02;;
70818;SDS011;58439;51.046;13.692;2023-05-07T05:50:00;24.55;;;12.10;;
70818;SDS011;58439;51.046;13.692;2023-05-07T05:52:29;21.73;;;11.63;;
70818;SDS011;58439;51.046;13.692;2023-05-07T05:54:56;25.63;;;12.30;;
70818;SDS011;58439;51.046;13.692;2023-05-07T05:57:26;21.08;;;12.32;;
70818;SDS011;58439;51.046;13.692;2023-05-07T06:00:33;28.95;;;14.45;;
70818;SDS011;58439;51.046;13.692;2023-05-07T06:03:14;25.63;;;13.18;;
70818;SDS011;58439;51.046;13.692;2023-05-07T06:05:42;27.48;;;13.98;;
70818;SDS011;58439;51.046;13.692;2023-05-07T06:08:09;22.23;;;12.43;;
70818;SDS011;58439;51.046;13.692;2023-05-07T06:10:42;23.88;;;12.98;;
70818;SDS011;58439;51.046;13.692;2023-05-07T06:13:12;21.08;;;12.40;;
70818;SDS011;58439;51.046;13.692;2023-05-07T06:15:41;21.63;;;11.60;;
70818;SDS011;58439;51.046;13.692;2023-05-07T06:18:11;19.50;;;10.85;;
70818;SDS011;58439;51.046;13.692;2023-05-07T06:20:39;19.58;;;9.85;;
70818;SDS011;58439;51.046;13.692;2023-05-07T06:23:11;16.77;;;9.60;;
70818;SDS011;58439;51.046;13.692;2023-05-07T06:25:48;17.42;;;10.05;;
70818;SDS011;58439;51.046;13.692;2023-05-07T06:28:19;15.07;;;9.20;;
70818;SDS011;58439;51.046;13.692;2023-05-07T06:30:46;18.27;;;9.98;;
70818;SDS011;58439;51.046;13.692;2023-05-07T06:33:17;16.50;;;9.35;;
70818;SDS011;58439;51.046;13.692;2023-05-07T06:35:44;15.20;;;9.15;;
70818;SDS011;58439;51.046;13.692;2023-05-07T06:38:11;15.80;;;8.52;;
70818;SDS011;58439;51.046;13.692;2023-05-07T06:40:39;17.33;;;9.32;;
70818;SDS011;58439;51.046;13.692;2023-05-07T06:43:06;17.38;;;10.27;;
70818;SDS011;58439;51.046;13.692;2023-05-07T06:45:41;15.93;;;9.13;;
70818;SDS011;58439;51.046;13.692;2023-05-07T06:48:10;17.00;;;8.25;;
70818;SDS011;58439;51.046;13.692;2023-05-07T06:50:48;14.90;;;8.07;;
70818;SDS011;58439;51.046;13.692;2023-05-07T06:53:15;17.00;;;8.35;;
70818;SDS011;58439;51.046;13.692;2023-05-07T06:55:42;15.80;;;8.77;;
70818;SDS011;58439;51.046;13.692;2023-05-07T06:58:10;16.60;;;9.05;;
70818;SDS011;58439;51.046;13.692;2023-05-07T07:00:39;15.18;;;8.27;;
70818;SDS011;58439;51.046;13.692;2023-05-07T07:03:08;15.60;;;8.80;;
70818;SDS011;58439;51.046;13.692;2023-05-07T07:05:36;14.88;;;8.35;;
70818;SDS011;58439;51.046;13.692;2023-05-07T07:08:04;14.40;;;8.82;;
70818;SDS011;58439;51.046;13.692;2023-05-07T07:10:31;13.52;;;7.82;;
70818;SDS011;58439;51.046;13.692;2023-05-07T07:12:59;16.83;;;9.35;;
70818;SDS011;58439;51.046;13.692;2023-05-07T07:15:27;13.32;;;8.40;;
70818;SDS011;58439;51.046;13.692;2023-05-07T07:17:57;15.80;;;8.80;;
70818;SDS011;58439;51.046;13.692;2023-05-07T07:20:25;19.40;;;9.90;;
70818;SDS011;58439;51.046;13.692;2023-05-07T07:22:52;14.23;;;8.73;;
70818;SDS011;58439;51.046;13.692;2023-05-07T07:25:20;15.07;;;8.63;;
70818;SDS011;58439;51.046;13.692;2023-05-07T07:27:48;17.67;;;9.30;;
70818;SDS011;58439;51.046;13.692;2023-05-07T07:30:16;14.00;;;8.40;;
70818;SDS011;58439;51.046;13.692;2023-05-07T07:32:46;13.13;;;7.68;;
70818;SDS011;58439;51.046;13.692;2023-05-07T07:35:15;11.88;;;7.15;;
70818;SDS011;58439;51.046;13.692;2023-05-07T07:37:44;13.23;;;6.85;;
70818;SDS011;58439;51.046;13.692;2023-05-07T07:40:13;10.10;;;6.43;;
70818;SDS011;58439;51.046;13.692;2023-05-07T07:42:41;9.07;;;5.75;;
70818;SDS011;58439;51.046;13.692;2023-05-07T07:45:09;10.80;;;5.85;;
70818;SDS011;58439;51.046;13.692;2023-05-07T07:47:41;11.25;;;5.88;;
70818;SDS011;58439;51.046;13.692;2023-05-07T07:50:09;8.52;;;5.47;;
70818;SDS011;58439;51.046;13.692;2023-05-07T07:55:09;7.50;;;5.30;;
70818;SDS011;58439;51.046;13.692;2023-05-07T07:57:37;8.68;;;4.70;;
70818;SDS011;58439;51.046;13.692;2023-05-07T08:00:05;9.20;;;4.90;;
70818;SDS011;58439;51.046;13.692;2023-05-07T08:02:42;10.05;;;5.18;;
70818;SDS011;58439;51.046;13.692;2023-05-07T08:05:14;8.25;;;4.78;;
70818;SDS011;58439;51.046;13.692;2023-05-07T08:07:44;7.85;;;5.07;;
70818;SDS011;58439;51.046;13.692;2023-05-07T08:10:22;7.78;;;4.63;;
70818;SDS011;58439;51.046;13.692;2023-05-07T08:12:56;8.75;;;5.00;;
70818;SDS011;58439;51.046;13.692;2023-05-07T08:15:23;9.63;;;4.95;;
70818;SDS011;58439;51.046;13.692;2023-05-07T08:17:50;9.10;;;5.25;;
70818;SDS011;58439;51.046;13.692;2023-05-07T08:20:18;8.23;;;5.20;;
70818;SDS011;58439;51.046;13.692;2023-05-07T08:22:45;7.13;;;4.78;;
70818;SDS011;58439;51.046;13.692;2023-05-07T08:25:12;6.85;;;4.95;;
70818;SDS011;58439;51.046;13.692;2023-05-07T08:27:39;7.90;;;4.88;;
70818;SDS011;58439;51.046;13.692;2023-05-07T08:30:07;6.03;;;4.45;;
70818;SDS011;58439;51.046;13.692;2023-05-07T08:32:35;8.93;;;4.63;;
70818;SDS011;58439;51.046;13.692;2023-05-07T08:35:02;9.85;;;4.90;;
70818;SDS011;58439;51.046;13.692;2023-05-07T08:40:25;7.15;;;3.63;;
70818;SDS011;58439;51.046;13.692;2023-05-07T08:42:58;6.15;;;4.40;;
70818;SDS011;58439;51.046;13.692;2023-05-07T08:45:26;8.55;;;4.05;;
70818;SDS011;58439;51.046;13.692;2023-05-07T08:47:59;5.75;;;4.13;;
70818;SDS011;58439;51.046;13.692;2023-05-07T08:50:37;6.60;;;4.55;;
70818;SDS011;58439;51.046;13.692;2023-05-07T08:53:05;5.53;;;4.00;;
70818;SDS011;58439;51.046;13.692;2023-05-07T08:55:32;6.15;;;4.45;;
70818;SDS011;58439;51.046;13.692;2023-05-07T08:58:00;7.28;;;4.20;;
70818;SDS011;58439;51.046;13.692;2023-05-07T09:00:31;7.75;;;5.15;;
70818;SDS011;58439;51.046;13.692;2023-05-07T09:03:00;6.93;;;4.95;;
70818;SDS011;58439;51.046;13.692;2023-05-07T09:05:30;8.70;;;5.03;;
70818;SDS011;58439;51.046;13.692;2023-05-07T09:08:04;6.95;;;4.32;;
70818;SDS011;58439;51.046;13.692;2023-05-07T09:10:35;7.72;;;5.70;;
70818;SDS011;58439;51.046;13.692;2023-05-07T09:13:04;9.68;;;6.20;;
70818;SDS011;58439;51.046;13.692;2023-05-07T09:15:31;9.30;;;6.13;;
70818;SDS011;58439;51.046;13.692;2023-05-07T09:17:59;10.48;;;6.38;;
70818;SDS011;58439;51.046;13.692;2023-05-07T09:20:32;12.02;;;7.15;;
70818;SDS011;58439;51.046;13.692;2023-05-07T09:23:01;10.38;;;6.60;;
70818;SDS011;58439;51.046;13.692;2023-05-07T09:25:29;11.35;;;6.90;;
70818;SDS011;58439;51.046;13.692;2023-05-07T09:28:04;12.02;;;7.15;;
70818;SDS011;58439;51.046;13.692;2023-05-07T09:30:33;9.48;;;6.55;;
70818;SDS011;58439;51.046;13.692;2023-05-07T09:33:04;8.93;;;5.80;;
70818;SDS011;58439;51.046;13.692;2023-05-07T09:35:35;11.02;;;6.40;;
70818;SDS011;58439;51.046;13.692;2023-05-07T09:38:08;13.70;;;7.07;;
70818;SDS011;58439;51.046;13.692;2023-05-07T09:40:36;12.77;;;7.63;;
70818;SDS011;58439;51.046;13.692;2023-05-07T09:43:08;12.40;;;7.50;;
70818;SDS011;58439;51.046;13.692;2023-05-07T09:45:42;11.38;;;6.88;;
70818;SDS011;58439;51.046;13.692;2023-05-07T09:48:11;13.70;;;7.40;;
70818;SDS011;58439;51.046;13.692;2023-05-07T09:50:48;14.15;;;7.60;;
70818;SDS011;58439;51.046;13.692;2023-05-07T09:53:22;12.13;;;7.40;;
70818;SDS011;58439;51.046;13.692;2023-05-07T09:55:51;11.18;;;6.80;;
70818;SDS011;58439;51.046;13.692;2023-05-07T09:58:20;13.45;;;7.25;;
70818;SDS011;58439;51.046;13.692;2023-05-07T10:00:50;10.70;;;7.20;;
70818;SDS011;58439;51.046;13.692;2023-05-07T10:03:19;12.68;;;7.63;;
70818;SDS011;58439;51.046;13.692;2023-05-07T10:05:58;9.80;;;6.70;;
70818;SDS011;58439;51.046;13.692;2023-05-07T10:08:26;11.95;;;7.18;;
70818;SDS011;58439;51.046;13.692;2023-05-07T10:10:57;8.98;;;5.22;;
70818;SDS011;58439;51.046;13.692;2023-05-07T10:13:28;10.15;;;6.93;;
70818;SDS011;58439;51.046;13.692;2023-05-07T10:15:58;11.27;;;7.32;;
70818;SDS011;58439;51.046;13.692;2023-05-07T10:18:32;14.38;;;8.80;;
70818;SDS011;58439;51.046;13.692;2023-05-07T10:21:07;16.13;;;8.32;;
70818;SDS011;58439;51.046;13.692;2023-05-07T10:23:51;8.70;;;6.45;;
70818;SDS011;58439;51.046;13.692;2023-05-07T10:26:30;13.48;;;7.65;;
70818;SDS011;58439;51.046;13.692;2023-05-07T10:29:07;11.95;;;6.97;;
70818;SDS011;58439;51.046;13.692;2023-05-07T10:32:27;10.00;;;6.53;;
70818;SDS011;58439;51.046;13.692;2023-05-07T10:35:04;12.25;;;6.97;;
70818;SDS011;58439;51.046;13.692;2023-05-07T10:38:21;9.82;;;7.25;;
70818;SDS011;58439;51.046;13.692;2023-05-07T10:41:38;10.45;;;6.88;;
70818;SDS011;58439;51.046;13.692;2023-05-07T10:50:56;9.63;;;6.50;;
70818;SDS011;58439;51.046;13.692;2023-05-07T11:04:45;12.20;;;7.03;;
70818;SDS011;58439;51.046;13.692;2023-05-07T11:08:01;13.68;;;7.18;;
70818;SDS011;58439;51.046;13.692;2023-05-07T11:10:52;9.63;;;6.57;;
70818;SDS011;58439;51.046;13.692;2023-05-07T11:13:43;9.20;;;6.72;;
70818;SDS011;58439;51.046;13.692;2023-05-07T11:16:26;8.48;;;5.45;;
70818;SDS011;58439;51.046;13.692;2023-05-07T11:19:06;12.73;;;7.13;;
70818;SDS011;58439;51.046;13.692;2023-05-07T11:21:42;8.75;;;6.10;;
70818;SDS011;58439;51.046;13.692;2023-05-07T11:27:27;9.38;;;6.03;;
70818;SDS011;58439;51.046;13.692;2023-05-07T11:29:56;8.82;;;5.55;;
70818;SDS011;58439;51.046;13.692;2023-05-07T11:32:29;8.23;;;6.05;;
70818;SDS011;58439;51.046;13.692;2023-05-07T11:34:59;8.13;;;5.50;;
70818;SDS011;58439;51.046;13.692;2023-05-07T11:37:30;14.30;;;7.80;;
70818;SDS011;58439;51.046;13.692;2023-05-07T11:40:04;8.93;;;6.35;;
70818;SDS011;58439;51.046;13.692;2023-05-07T11:42:40;8.63;;;6.13;;
70818;SDS011;58439;51.046;13.692;2023-05-07T11:45:12;10.13;;;6.00;;
70818;SDS011;58439;51.046;13.692;2023-05-07T11:47:51;8.27;;;5.55;;
70818;SDS011;58439;51.046;13.692;2023-05-07T11:50:19;7.88;;;5.75;;
70818;SDS011;58439;51.046;13.692;2023-05-07T11:52:50;9.38;;;6.15;;
70818;SDS011;58439;51.046;13.692;2023-05-07T11:55:19;9.60;;;5.80;;
70818;SDS011;58439;51.046;13.692;2023-05-07T11:57:46;9.95;;;6.22;;
70818;SDS011;58439;51.046;13.692;2023-05-07T12:00:15;9.60;;;5.43;;
70818;SDS011;58439;51.046;13.692;2023-05-07T12:02:46;10.00;;;6.60;;
70818;SDS011;58439;51.046;13.692;2023-05-07T12:05:14;8.93;;;6.32;;
70818;SDS011;58439;51.046;13.692;2023-05-07T12:07:43;11.10;;;6.00;;
70818;SDS011;58439;51.046;13.692;2023-05-07T12:10:10;12.35;;;5.78;;
70818;SDS011;58439;51.046;13.692;2023-05-07T12:12:39;12.20;;;6.15;;
70818;SDS011;58439;51.046;13.692;2023-05-07T12:15:09;8.32;;;5.90;;
70818;SDS011;58439;51.046;13.692;2023-05-07T12:17:43;12.20;;;6.70;;
70818;SDS011;58439;51.046;13.692;2023-05-07T12:20:10;8.77;;;6.32;;
70818;SDS011;58439;51.046;13.692;2023-05-07T12:22:38;7.85;;;5.32;;
70818;SDS011;58439;51.046;13.692;2023-05-07T12:25:06;7.07;;;5.07;;
70818;SDS011;58439;51.046;13.692;2023-05-07T12:27:36;8.80;;;5.03;;
70818;SDS011;58439;51.046;13.692;2023-05-07T12:30:05;8.00;;;5.70;;
70818;SDS011;58439;51.046;13.692;2023-05-07T12:32:36;8.70;;;5.57;;
70818;SDS011;58439;51.046;13.692;2023-05-07T12:35:05;9.23;;;6.13;;
70818;SDS011;58439;51.046;13.692;2023-05-07T12:37:33;8.32;;;5.38;;
70818;SDS011;58439;51.046;13.692;2023-05-07T12:40:06;9.98;;;6.25;;
70818;SDS011;58439;51.046;13.692;2023-05-07T12:42:39;8.27;;;5.85;;
70818;SDS011;58439;51.046;13.692;2023-05-07T12:45:07;12.30;;;5.70;;
70818;SDS011;58439;51.046;13.692;2023-05-07T12:47:44;8.05;;;6.40;;
70818;SDS011;58439;51.046;13.692;2023-05-07T12:50:13;7.88;;;5.82;;
70818;SDS011;58439;51.046;13.692;2023-05-07T12:52:42;10.80;;;6.15;;
70818;SDS011;58439;51.046;13.692;2023-05-07T12:55:18;9.30;;;5.57;;
70818;SDS011;58439;51.046;13.692;2023-05-07T12:57:47;7.68;;;5.47;;
70818;SDS011;58439;51.046;13.692;2023-05-07T13:00:17;7.30;;;4.63;;
70818;SDS011;58439;51.046;13.692;2023-05-07T13:02:59;9.25;;;6.03;;
70818;SDS011;58439;51.046;13.692;2023-05-07T13:05:26;8.45;;;5.43;;
70818;SDS011;58439;51.046;13.692;2023-05-07T13:07:55;9.52;;;5.45;;
70818;SDS011;58439;51.046;13.692;2023-05-07T13:10:23;8.02;;;5.68;;
70818;SDS011;58439;51.046;13.692;2023-05-07T13:12:52;7.32;;;5.75;;
70818;SDS011;58439;51.046;13.692;2023-05-07T13:15:21;7.90;;;5.45;;
70818;SDS011;58439;51.046;13.692;2023-05-07T13:17:48;10.48;;;5.20;;
70818;SDS011;58439;51.046;13.692;2023-05-07T13:20:15;6.65;;;5.10;;
70818;SDS011;58439;51.046;13.692;2023-05-07T13:22:43;7.95;;;5.20;;
70818;SDS011;58439;51.046;13.692;2023-05-07T13:25:10;6.93;;;5.10;;
70818;SDS011;58439;51.046;13.692;2023-05-07T13:27:37;6.75;;;5.05;;
70818;SDS011;58439;51.046;13.692;2023-05-07T13:30:04;7.50;;;4.95;;
70818;SDS011;58439;51.046;13.692;2023-05-07T13:32:33;7.18;;;4.80;;
70818;SDS011;58439;51.046;13.692;2023-05-07T13:35:01;7.03;;;4.72;;
70818;SDS011;58439;51.046;13.692;2023-05-07T13:37:28;9.50;;;4.47;;
70818;SDS011;58439;51.046;13.692;2023-05-07T13:39:55;7.60;;;4.70;;
70818;SDS011;58439;51.046;13.692;2023-05-07T13:42:22;8.13;;;5.10;;
70818;SDS011;58439;51.046;13.692;2023-05-07T13:44:49;8.02;;;5.50;;
70818;SDS011;58439;51.046;13.692;2023-05-07T13:47:16;7.57;;;5.22;;
70818;SDS011;58439;51.046;13.692;2023-05-07T13:49:43;7.93;;;4.90;;
70818;SDS011;58439;51.046;13.692;2023-05-07T13:52:16;6.57;;;4.32;;
70818;SDS011;58439;51.046;13.692;2023-05-07T13:54:43;7.15;;;5.07;;
70818;SDS011;58439;51.046;13.692;2023-05-07T13:57:13;6.05;;;4.60;;
70818;SDS011;58439;51.046;13.692;2023-05-07T13:59:40;6.63;;;4.80;;
70818;SDS011;58439;51.046;13.692;2023-05-07T14:02:07;5.93;;;4.40;;
70818;SDS011;58439;51.046;13.692;2023-05-07T14:04:35;6.80;;;4.35;;
70818;SDS011;58439;51.046;13.692;2023-05-07T14:07:04;6.85;;;4.97;;
70818;SDS011;58439;51.046;13.692;2023-05-07T14:09:31;8.95;;;4.97;;
70818;SDS011;58439;51.046;13.692;2023-05-07T14:11:58;6.93;;;4.90;;
70818;SDS011;58439;51.046;13.692;2023-05-07T14:14:26;5.32;;;4.10;;
70818;SDS011;58439;51.046;13.692;2023-05-07T14:16:54;6.88;;;4.57;;
70818;SDS011;58439;51.046;13.692;2023-05-07T14:19:21;7.47;;;4.55;;
70818;SDS011;58439;51.046;13.692;2023-05-07T14:21:49;6.85;;;4.63;;
70818;SDS011;58439;51.046;13.692;2023-05-07T14:24:16;5.40;;;3.72;;
70818;SDS011;58439;51.046;13.692;2023-05-07T14:27:02;5.85;;;3.78;;
70818;SDS011;58439;51.046;13.692;2023-05-07T14:29:32;6.32;;;4.30;;
70818;SDS011;58439;51.046;13.692;2023-05-07T14:31:59;5.57;;;3.78;;
70818;SDS011;58439;51.046;13.692;2023-05-07T14:34:26;7.22;;;3.92;;
70818;SDS011;58439;51.046;13.692;2023-05-07T14:36:53;5.88;;;3.88;;
70818;SDS011;58439;51.046;13.692;2023-05-07T14:39:21;6.25;;;3.38;;
70818;SDS011;58439;51.046;13.692;2023-05-07T14:41:48;9.85;;;3.80;;
70818;SDS011;58439;51.046;13.692;2023-05-07T14:44:16;6.13;;;3.28;;
70818;SDS011;58439;51.046;13.692;2023-05-07T14:46:43;4.20;;;3.13;;
70818;SDS011;58439;51.046;13.692;2023-05-07T14:49:10;5.15;;;3.08;;
70818;SDS011;58439;51.046;13.692;2023-05-07T14:51:43;3.55;;;2.78;;
70818;SDS011;58439;51.046;13.692;2023-05-07T14:54:15;6.45;;;3.30;;
70818;SDS011;58439;51.046;13.692;2023-05-07T14:56:43;3.33;;;2.58;;
70818;SDS011;58439;51.046;13.692;2023-05-07T14:59:10;7.13;;;3.40;;
70818;SDS011;58439;51.046;13.692;2023-05-07T15:01:38;5.97;;;3.30;;
70818;SDS011;58439;51.046;13.692;2023-05-07T15:04:08;6.28;;;3.70;;
70818;SDS011;58439;51.046;13.692;2023-05-07T15:06:36;5.63;;;3.53;;
70818;SDS011;58439;51.046;13.692;2023-05-07T15:09:03;6.70;;;4.53;;
70818;SDS011;58439;51.046;13.692;2023-05-07T15:11:30;4.70;;;3.03;;
70818;SDS011;58439;51.046;13.692;2023-05-07T15:13:57;7.25;;;3.45;;